KRWI/RWI METAR and TAF weather

Enter ICAO airport designator
Station Type Date Time Source
KRWI METAR 2022/06/30 00:53 UTC NOAA

KRWI 300053Z AUTO 15003KT 10SM CLR 26/20 A3023 RMK AO2 SLP234 T02560200


Station Type Date Time Source
KRWI Decoded METAR 2022/06/30 00:53 UTC NOAA

ROCKY MOUNT-WILSON AIRPORT, NC, United States (KRWI) 35-51N 077-54W 47M
Jun 29, 2022 - 08:53 PM EDT / 2022.06.30 0053 UTC
Wind: from the SSE (150 degrees) at 3 MPH (3 KT):0
Visibility: 10 mile(s):0
Sky conditions: clear
Temperature: 78.1 F (25.6 C)
Dew Point: 68.0 F (20.0 C)
Relative Humidity: 71%
Pressure (altimeter): 30.23 in. Hg (1023 hPa)
ob: KRWI 300053Z AUTO 15003KT 10SM CLR 26/20 A3023 RMK AO2 SLP234 T02560200
cycle: 1

Station Type Date Time Source
KRWI TAF 2022/06/29 18:42 UTC NOAA

TAF KRWI 291740Z 2918/3018 13006KT P6SM SCT030 BKN045 BKN250
FM300800 00000KT 2SM BR SCT003 BKN250
TEMPO 3009/3011 1SM BR BKN003
FM301200 14004KT P6SM SCT030 BKN250

Example: see airport list